sensor_id;sensor_type;location;lat;lon;timestamp;P1;durP1;ratioP1;P2;durP2;ratioP2
22768;SDS011;13001;51.968;5.918;2023-02-28T00:00:53;459.95;;;424.50;;
22768;SDS011;13001;51.968;5.918;2023-02-28T00:03:20;471.40;;;435.27;;
22768;SDS011;13001;51.968;5.918;2023-02-28T00:05:47;466.42;;;430.63;;
22768;SDS011;13001;51.968;5.918;2023-02-28T00:08:14;455.47;;;421.30;;
22768;SDS011;13001;51.968;5.918;2023-02-28T00:10:42;1061.55;;;962.40;;
22768;SDS011;13001;51.968;5.918;2023-02-28T00:13:10;960.77;;;879.37;;
22768;SDS011;13001;51.968;5.918;2023-02-28T00:15:38;892.62;;;822.98;;
22768;SDS011;13001;51.968;5.918;2023-02-28T00:18:05;642.48;;;595.23;;
22768;SDS011;13001;51.968;5.918;2023-02-28T00:20:32;511.77;;;474.35;;
22768;SDS011;13001;51.968;5.918;2023-02-28T00:22:59;520.65;;;482.50;;
22768;SDS011;13001;51.968;5.918;2023-02-28T00:25:28;583.17;;;537.27;;
22768;SDS011;13001;51.968;5.918;2023-02-28T00:27:55;932.77;;;856.02;;
22768;SDS011;13001;51.968;5.918;2023-02-28T00:30:23;610.55;;;565.85;;
22768;SDS011;13001;51.968;5.918;2023-02-28T00:32:50;497.17;;;461.03;;
22768;SDS011;13001;51.968;5.918;2023-02-28T00:35:18;568.63;;;526.20;;
22768;SDS011;13001;51.968;5.918;2023-02-28T00:37:45;573.33;;;530.87;;
22768;SDS011;13001;51.968;5.918;2023-02-28T00:40:12;549.83;;;509.13;;
22768;SDS011;13001;51.968;5.918;2023-02-28T00:42:39;494.80;;;458.30;;
22768;SDS011;13001;51.968;5.918;2023-02-28T00:45:07;663.83;;;614.25;;
22768;SDS011;13001;51.968;5.918;2023-02-28T00:47:34;510.23;;;472.67;;
22768;SDS011;13001;51.968;5.918;2023-02-28T00:50:02;577.02;;;533.92;;
22768;SDS011;13001;51.968;5.918;2023-02-28T00:52:29;591.10;;;547.33;;
22768;SDS011;13001;51.968;5.918;2023-02-28T00:54:57;541.17;;;501.45;;
22768;SDS011;13001;51.968;5.918;2023-02-28T00:57:24;510.73;;;473.07;;
22768;SDS011;13001;51.968;5.918;2023-02-28T00:59:52;672.75;;;617.60;;
22768;SDS011;13001;51.968;5.918;2023-02-28T01:02:21;696.90;;;643.53;;
22768;SDS011;13001;51.968;5.918;2023-02-28T01:04:48;443.23;;;410.45;;
22768;SDS011;13001;51.968;5.918;2023-02-28T01:07:16;576.37;;;533.00;;
22768;SDS011;13001;51.968;5.918;2023-02-28T01:09:44;575.25;;;531.83;;
22768;SDS011;13001;51.968;5.918;2023-02-28T01:12:11;586.47;;;542.37;;
22768;SDS011;13001;51.968;5.918;2023-02-28T01:14:38;533.70;;;494.85;;
22768;SDS011;13001;51.968;5.918;2023-02-28T01:17:06;901.70;;;827.37;;
22768;SDS011;13001;51.968;5.918;2023-02-28T01:19:33;480.43;;;447.20;;
22768;SDS011;13001;51.968;5.918;2023-02-28T01:22:02;533.80;;;494.67;;
22768;SDS011;13001;51.968;5.918;2023-02-28T01:24:29;596.70;;;551.90;;
22768;SDS011;13001;51.968;5.918;2023-02-28T01:26:56;598.02;;;553.83;;
22768;SDS011;13001;51.968;5.918;2023-02-28T01:29:24;646.17;;;594.00;;
22768;SDS011;13001;51.968;5.918;2023-02-28T01:34:37;637.27;;;585.92;;
22768;SDS011;13001;51.968;5.918;2023-02-28T01:37:05;647.25;;;594.55;;
22768;SDS011;13001;51.968;5.918;2023-02-28T01:39:34;646.92;;;594.67;;
22768;SDS011;13001;51.968;5.918;2023-02-28T01:42:01;649.12;;;596.05;;
22768;SDS011;13001;51.968;5.918;2023-02-28T01:47:13;642.77;;;589.95;;
22768;SDS011;13001;51.968;5.918;2023-02-28T01:49:41;644.55;;;592.90;;
22768;SDS011;13001;51.968;5.918;2023-02-28T01:52:09;637.30;;;585.42;;
22768;SDS011;13001;51.968;5.918;2023-02-28T01:54:39;637.40;;;586.42;;
22768;SDS011;13001;51.968;5.918;2023-02-28T01:57:10;635.87;;;584.92;;
22768;SDS011;13001;51.968;5.918;2023-02-28T01:59:44;622.73;;;571.95;;
22768;SDS011;13001;51.968;5.918;2023-02-28T02:02:08;640.60;;;588.85;;
22768;SDS011;13001;51.968;5.918;2023-02-28T02:04:37;632.60;;;581.78;;
22768;SDS011;13001;51.968;5.918;2023-02-28T02:07:04;573.08;;;527.65;;
22768;SDS011;13001;51.968;5.918;2023-02-28T02:09:32;540.25;;;497.43;;
22768;SDS011;13001;51.968;5.918;2023-02-28T02:11:59;517.30;;;476.65;;
22768;SDS011;13001;51.968;5.918;2023-02-28T02:14:50;541.20;;;498.02;;
22768;SDS011;13001;51.968;5.918;2023-02-28T02:20:10;1010.83;;;913.90;;
22768;SDS011;13001;51.968;5.918;2023-02-28T02:25:20;470.32;;;434.25;;
22768;SDS011;13001;51.968;5.918;2023-02-28T02:43:19;394.23;;;363.73;;
22768;SDS011;13001;51.968;5.918;2023-02-28T02:45:54;445.60;;;410.57;;
22768;SDS011;13001;51.968;5.918;2023-02-28T02:48:24;411.37;;;379.50;;
22768;SDS011;13001;51.968;5.918;2023-02-28T02:50:54;365.55;;;337.68;;
22768;SDS011;13001;51.968;5.918;2023-02-28T02:53:21;373.87;;;346.62;;
22768;SDS011;13001;51.968;5.918;2023-02-28T02:55:48;353.02;;;330.37;;
22768;SDS011;13001;51.968;5.918;2023-02-28T02:58:18;373.07;;;345.82;;
22768;SDS011;13001;51.968;5.918;2023-02-28T03:00:48;407.12;;;375.48;;
22768;SDS011;13001;51.968;5.918;2023-02-28T03:03:16;376.82;;;348.05;;
22768;SDS011;13001;51.968;5.918;2023-02-28T03:05:48;376.37;;;349.97;;
22768;SDS011;13001;51.968;5.918;2023-02-28T03:08:15;379.10;;;350.48;;
22768;SDS011;13001;51.968;5.918;2023-02-28T03:10:47;453.58;;;418.10;;
22768;SDS011;13001;51.968;5.918;2023-02-28T03:21:36;362.38;;;337.12;;
22768;SDS011;13001;51.968;5.918;2023-02-28T03:26:32;358.40;;;333.67;;
22768;SDS011;13001;51.968;5.918;2023-02-28T03:29:18;364.48;;;339.02;;
22768;SDS011;13001;51.968;5.918;2023-02-28T03:31:45;343.37;;;321.65;;
22768;SDS011;13001;51.968;5.918;2023-02-28T03:34:17;368.90;;;344.93;;
22768;SDS011;13001;51.968;5.918;2023-02-28T03:36:46;334.95;;;313.52;;
22768;SDS011;13001;51.968;5.918;2023-02-28T03:39:15;372.58;;;348.57;;
22768;SDS011;13001;51.968;5.918;2023-02-28T03:41:47;347.40;;;325.68;;
22768;SDS011;13001;51.968;5.918;2023-02-28T03:44:16;340.40;;;318.95;;
22768;SDS011;13001;51.968;5.918;2023-02-28T03:46:44;366.12;;;343.02;;
22768;SDS011;13001;51.968;5.918;2023-02-28T03:49:15;427.43;;;398.93;;
22768;SDS011;13001;51.968;5.918;2023-02-28T03:51:40;397.82;;;370.97;;
22768;SDS011;13001;51.968;5.918;2023-02-28T03:54:09;387.90;;;361.37;;
22768;SDS011;13001;51.968;5.918;2023-02-28T03:56:44;388.10;;;362.48;;
22768;SDS011;13001;51.968;5.918;2023-02-28T03:59:19;386.48;;;360.93;;
22768;SDS011;13001;51.968;5.918;2023-02-28T04:01:47;377.00;;;352.80;;
22768;SDS011;13001;51.968;5.918;2023-02-28T04:04:15;337.72;;;316.15;;
22768;SDS011;13001;51.968;5.918;2023-02-28T04:06:43;345.97;;;323.80;;
22768;SDS011;13001;51.968;5.918;2023-02-28T04:09:12;353.18;;;330.12;;
22768;SDS011;13001;51.968;5.918;2023-02-28T04:11:40;359.52;;;336.25;;
22768;SDS011;13001;51.968;5.918;2023-02-28T04:14:08;397.82;;;371.15;;
22768;SDS011;13001;51.968;5.918;2023-02-28T04:16:36;378.40;;;353.50;;
22768;SDS011;13001;51.968;5.918;2023-02-28T04:19:05;408.35;;;381.05;;
22768;SDS011;13001;51.968;5.918;2023-02-28T04:21:38;396.40;;;369.70;;
22768;SDS011;13001;51.968;5.918;2023-02-28T04:24:02;395.33;;;369.00;;
22768;SDS011;13001;51.968;5.918;2023-02-28T04:26:31;394.80;;;368.75;;
22768;SDS011;13001;51.968;5.918;2023-02-28T04:28:59;403.32;;;376.42;;
22768;SDS011;13001;51.968;5.918;2023-02-28T04:31:26;397.63;;;371.02;;
22768;SDS011;13001;51.968;5.918;2023-02-28T04:33:54;399.73;;;373.23;;
22768;SDS011;13001;51.968;5.918;2023-02-28T04:36:21;410.78;;;382.92;;
22768;SDS011;13001;51.968;5.918;2023-02-28T04:38:49;403.15;;;376.02;;
22768;SDS011;13001;51.968;5.918;2023-02-28T04:41:16;429.70;;;400.50;;
22768;SDS011;13001;51.968;5.918;2023-02-28T04:43:44;943.65;;;865.67;;
22768;SDS011;13001;51.968;5.918;2023-02-28T04:46:12;707.23;;;653.00;;
22768;SDS011;13001;51.968;5.918;2023-02-28T04:48:39;543.35;;;503.27;;
22768;SDS011;13001;51.968;5.918;2023-02-28T04:51:08;534.37;;;497.67;;
22768;SDS011;13001;51.968;5.918;2023-02-28T04:53:36;429.68;;;401.70;;
22768;SDS011;13001;51.968;5.918;2023-02-28T04:56:04;432.52;;;403.62;;
22768;SDS011;13001;51.968;5.918;2023-02-28T04:58:32;366.05;;;342.65;;
22768;SDS011;13001;51.968;5.918;2023-02-28T05:01:03;430.05;;;399.77;;
22768;SDS011;13001;51.968;5.918;2023-02-28T05:03:31;446.33;;;415.00;;
22768;SDS011;13001;51.968;5.918;2023-02-28T05:05:58;410.48;;;381.68;;
22768;SDS011;13001;51.968;5.918;2023-02-28T05:08:25;429.77;;;400.05;;
22768;SDS011;13001;51.968;5.918;2023-02-28T05:10:52;433.30;;;403.25;;
22768;SDS011;13001;51.968;5.918;2023-02-28T05:13:20;449.35;;;417.35;;
22768;SDS011;13001;51.968;5.918;2023-02-28T05:15:47;454.57;;;422.23;;
22768;SDS011;13001;51.968;5.918;2023-02-28T05:18:14;438.20;;;407.92;;
22768;SDS011;13001;51.968;5.918;2023-02-28T05:20:41;456.32;;;424.02;;
22768;SDS011;13001;51.968;5.918;2023-02-28T05:23:10;439.32;;;408.80;;
22768;SDS011;13001;51.968;5.918;2023-02-28T05:25:38;417.85;;;388.98;;
22768;SDS011;13001;51.968;5.918;2023-02-28T05:28:05;429.92;;;400.48;;
22768;SDS011;13001;51.968;5.918;2023-02-28T05:30:32;444.10;;;413.20;;
22768;SDS011;13001;51.968;5.918;2023-02-28T05:33:00;420.88;;;391.88;;
22768;SDS011;13001;51.968;5.918;2023-02-28T05:35:27;421.05;;;392.18;;
22768;SDS011;13001;51.968;5.918;2023-02-28T05:37:54;453.45;;;422.98;;
22768;SDS011;13001;51.968;5.918;2023-02-28T05:40:21;429.35;;;400.95;;
22768;SDS011;13001;51.968;5.918;2023-02-28T05:42:54;398.10;;;371.40;;
22768;SDS011;13001;51.968;5.918;2023-02-28T05:45:18;388.20;;;362.00;;
22768;SDS011;13001;51.968;5.918;2023-02-28T05:47:45;415.17;;;387.20;;
22768;SDS011;13001;51.968;5.918;2023-02-28T05:50:17;474.70;;;442.37;;
22768;SDS011;13001;51.968;5.918;2023-02-28T05:52:48;454.72;;;423.65;;
22768;SDS011;13001;51.968;5.918;2023-02-28T05:55:13;412.65;;;384.70;;
22768;SDS011;13001;51.968;5.918;2023-02-28T05:57:40;369.27;;;344.87;;
22768;SDS011;13001;51.968;5.918;2023-02-28T06:00:09;372.75;;;348.35;;
22768;SDS011;13001;51.968;5.918;2023-02-28T06:02:38;404.07;;;376.52;;
22768;SDS011;13001;51.968;5.918;2023-02-28T06:05:08;387.85;;;361.92;;
22768;SDS011;13001;51.968;5.918;2023-02-28T06:07:34;389.40;;;363.32;;
22768;SDS011;13001;51.968;5.918;2023-02-28T06:10:02;387.68;;;361.52;;
22768;SDS011;13001;51.968;5.918;2023-02-28T06:12:29;398.83;;;372.40;;
22768;SDS011;13001;51.968;5.918;2023-02-28T06:14:56;395.82;;;370.37;;
22768;SDS011;13001;51.968;5.918;2023-02-28T06:17:24;374.73;;;350.18;;
22768;SDS011;13001;51.968;5.918;2023-02-28T06:19:51;391.00;;;365.10;;
22768;SDS011;13001;51.968;5.918;2023-02-28T06:22:18;381.08;;;355.92;;
22768;SDS011;13001;51.968;5.918;2023-02-28T06:24:45;388.73;;;363.05;;
22768;SDS011;13001;51.968;5.918;2023-02-28T06:27:13;387.45;;;361.62;;
22768;SDS011;13001;51.968;5.918;2023-02-28T06:29:40;374.15;;;349.62;;
22768;SDS011;13001;51.968;5.918;2023-02-28T06:32:07;384.60;;;359.60;;
22768;SDS011;13001;51.968;5.918;2023-02-28T06:34:35;385.32;;;360.43;;
22768;SDS011;13001;51.968;5.918;2023-02-28T06:37:02;381.05;;;356.65;;
22768;SDS011;13001;51.968;5.918;2023-02-28T06:39:30;367.73;;;343.88;;
22768;SDS011;13001;51.968;5.918;2023-02-28T06:41:57;392.30;;;365.75;;
22768;SDS011;13001;51.968;5.918;2023-02-28T06:44:24;405.50;;;378.07;;
22768;SDS011;13001;51.968;5.918;2023-02-28T06:46:52;324.98;;;305.73;;
22768;SDS011;13001;51.968;5.918;2023-02-28T06:49:19;321.20;;;302.27;;
22768;SDS011;13001;51.968;5.918;2023-02-28T06:51:46;334.00;;;312.82;;
22768;SDS011;13001;51.968;5.918;2023-02-28T06:54:14;998.02;;;912.83;;
22768;SDS011;13001;51.968;5.918;2023-02-28T06:56:41;1000.50;;;918.77;;
22768;SDS011;13001;51.968;5.918;2023-02-28T06:59:08;695.10;;;643.15;;
22768;SDS011;13001;51.968;5.918;2023-02-28T07:01:36;722.58;;;668.37;;
22768;SDS011;13001;51.968;5.918;2023-02-28T07:04:03;444.73;;;415.17;;
22768;SDS011;13001;51.968;5.918;2023-02-28T07:06:32;480.15;;;447.75;;
22768;SDS011;13001;51.968;5.918;2023-02-28T07:08:59;395.40;;;370.07;;
22768;SDS011;13001;51.968;5.918;2023-02-28T07:11:27;1034.90;;;942.47;;
22768;SDS011;13001;51.968;5.918;2023-02-28T07:13:55;633.67;;;586.28;;
22768;SDS011;13001;51.968;5.918;2023-02-28T07:16:23;648.78;;;599.20;;
22768;SDS011;13001;51.968;5.918;2023-02-28T07:18:53;416.27;;;388.75;;
22768;SDS011;13001;51.968;5.918;2023-02-28T07:21:22;322.23;;;301.52;;
22768;SDS011;13001;51.968;5.918;2023-02-28T07:23:50;362.08;;;339.23;;
22768;SDS011;13001;51.968;5.918;2023-02-28T07:26:18;275.95;;;258.27;;
22768;SDS011;13001;51.968;5.918;2023-02-28T07:28:46;273.75;;;256.40;;
22768;SDS011;13001;51.968;5.918;2023-02-28T07:31:14;838.70;;;769.17;;
22768;SDS011;13001;51.968;5.918;2023-02-28T07:33:41;511.10;;;475.77;;
22768;SDS011;13001;51.968;5.918;2023-02-28T07:36:10;275.45;;;257.10;;
22768;SDS011;13001;51.968;5.918;2023-02-28T07:38:39;295.73;;;276.92;;
22768;SDS011;13001;51.968;5.918;2023-02-28T07:41:06;345.73;;;322.65;;
22768;SDS011;13001;51.968;5.918;2023-02-28T07:43:34;308.73;;;288.93;;
22768;SDS011;13001;51.968;5.918;2023-02-28T07:46:03;299.90;;;280.87;;
22768;SDS011;13001;51.968;5.918;2023-02-28T07:48:30;336.37;;;314.55;;
22768;SDS011;13001;51.968;5.918;2023-02-28T07:50:58;336.90;;;315.23;;
22768;SDS011;13001;51.968;5.918;2023-02-28T07:53:26;160.93;;;150.90;;
22768;SDS011;13001;51.968;5.918;2023-02-28T07:58:20;424.88;;;397.88;;
22768;SDS011;13001;51.968;5.918;2023-02-28T08:00:47;159.77;;;149.87;;
22768;SDS011;13001;51.968;5.918;2023-02-28T08:03:14;179.00;;;167.63;;
22768;SDS011;13001;51.968;5.918;2023-02-28T08:05:41;187.40;;;175.50;;
22768;SDS011;13001;51.968;5.918;2023-02-28T08:08:09;141.47;;;133.03;;
22768;SDS011;13001;51.968;5.918;2023-02-28T09:43:29;144.97;;;136.77;;
22768;SDS011;13001;51.968;5.918;2023-02-28T09:46:16;65.77;;;62.13;;
22768;SDS011;13001;51.968;5.918;2023-02-28T09:48:41;89.70;;;84.73;;
22768;SDS011;13001;51.968;5.918;2023-02-28T09:53:51;146.43;;;138.30;;
22768;SDS011;13001;51.968;5.918;2023-02-28T10:01:28;357.83;;;331.70;;
22768;SDS011;13001;51.968;5.918;2023-02-28T10:03:55;151.93;;;143.13;;
22768;SDS011;13001;51.968;5.918;2023-02-28T10:06:23;164.27;;;154.60;;
22768;SDS011;13001;51.968;5.918;2023-02-28T10:09:00;169.20;;;159.50;;
22768;SDS011;13001;51.968;5.918;2023-02-28T10:11:25;155.20;;;146.37;;
22768;SDS011;13001;51.968;5.918;2023-02-28T10:13:54;107.77;;;101.83;;
22768;SDS011;13001;51.968;5.918;2023-02-28T10:16:31;125.37;;;118.20;;
22768;SDS011;13001;51.968;5.918;2023-02-28T10:18:57;174.97;;;164.47;;
22768;SDS011;13001;51.968;5.918;2023-02-28T10:21:26;127.30;;;120.20;;
22768;SDS011;13001;51.968;5.918;2023-02-28T10:23:56;147.47;;;138.47;;
22768;SDS011;13001;51.968;5.918;2023-02-28T10:26:21;177.10;;;166.37;;
22768;SDS011;13001;51.968;5.918;2023-02-28T10:28:50;198.57;;;186.33;;
22768;SDS011;13001;51.968;5.918;2023-02-28T10:31:19;163.83;;;153.50;;
22768;SDS011;13001;51.968;5.918;2023-02-28T10:33:46;159.80;;;150.07;;
22768;SDS011;13001;51.968;5.918;2023-02-28T10:36:15;112.63;;;106.20;;
22768;SDS011;13001;51.968;5.918;2023-02-28T10:38:43;147.93;;;139.17;;
22768;SDS011;13001;51.968;5.918;2023-02-28T10:41:15;161.50;;;151.80;;
22768;SDS011;13001;51.968;5.918;2023-02-28T10:43:43;174.07;;;162.77;;
22768;SDS011;13001;51.968;5.918;2023-02-28T10:46:16;145.97;;;137.37;;
22768;SDS011;13001;51.968;5.918;2023-02-28T10:48:47;109.80;;;103.63;;
22768;SDS011;13001;51.968;5.918;2023-02-28T10:51:16;114.80;;;108.03;;
22768;SDS011;13001;51.968;5.918;2023-02-28T10:53:54;119.03;;;112.20;;
22768;SDS011;13001;51.968;5.918;2023-02-28T10:56:22;116.27;;;109.80;;
22768;SDS011;13001;51.968;5.918;2023-02-28T11:01:35;130.63;;;123.17;;
22768;SDS011;13001;51.968;5.918;2023-02-28T11:06:56;137.53;;;129.23;;
22768;SDS011;13001;51.968;5.918;2023-02-28T11:11:52;100.47;;;94.90;;
22768;SDS011;13001;51.968;5.918;2023-02-28T11:14:20;185.20;;;173.77;;
22768;SDS011;13001;51.968;5.918;2023-02-28T11:16:48;84.87;;;80.23;;
22768;SDS011;13001;51.968;5.918;2023-02-28T11:19:18;113.73;;;107.40;;
22768;SDS011;13001;51.968;5.918;2023-02-28T11:21:48;125.83;;;118.53;;
22768;SDS011;13001;51.968;5.918;2023-02-28T11:24:24;94.73;;;89.43;;
22768;SDS011;13001;51.968;5.918;2023-02-28T11:26:51;96.63;;;91.20;;
22768;SDS011;13001;51.968;5.918;2023-02-28T11:29:23;143.07;;;134.40;;
22768;SDS011;13001;51.968;5.918;2023-02-28T11:34:36;260.80;;;243.30;;
22768;SDS011;13001;51.968;5.918;2023-02-28T11:37:04;94.07;;;88.40;;
22768;SDS011;13001;51.968;5.918;2023-02-28T11:39:33;233.63;;;217.43;;
22768;SDS011;13001;51.968;5.918;2023-02-28T11:42:06;144.20;;;135.47;;
22768;SDS011;13001;51.968;5.918;2023-02-28T11:44:39;161.23;;;151.07;;
22768;SDS011;13001;51.968;5.918;2023-02-28T11:47:08;162.03;;;151.60;;
22768;SDS011;13001;51.968;5.918;2023-02-28T11:50:18;128.57;;;121.00;;
22768;SDS011;13001;51.968;5.918;2023-02-28T11:52:06;156.67;;;146.90;;
22768;SDS011;13001;51.968;5.918;2023-02-28T11:57:10;99.30;;;93.73;;
22768;SDS011;13001;51.968;5.918;2023-02-28T11:59:35;96.33;;;90.93;;
22768;SDS011;13001;51.968;5.918;2023-02-28T12:09:58;97.93;;;92.43;;
22768;SDS011;13001;51.968;5.918;2023-02-28T12:12:37;111.80;;;105.50;;
22768;SDS011;13001;51.968;5.918;2023-02-28T12:18:00;101.27;;;95.57;;
22768;SDS011;13001;51.968;5.918;2023-02-28T12:20:33;114.10;;;107.47;;
22768;SDS011;13001;51.968;5.918;2023-02-28T12:25:38;132.67;;;124.57;;
22768;SDS011;13001;51.968;5.918;2023-02-28T12:28:09;94.53;;;89.17;;
22768;SDS011;13001;51.968;5.918;2023-02-28T12:30:36;117.50;;;110.70;;
22768;SDS011;13001;51.968;5.918;2023-02-28T12:33:08;123.33;;;115.90;;
22768;SDS011;13001;51.968;5.918;2023-02-28T12:35:49;180.53;;;167.90;;
22768;SDS011;13001;51.968;5.918;2023-02-28T12:40:56;112.50;;;106.00;;
22768;SDS011;13001;51.968;5.918;2023-02-28T12:43:25;107.23;;;101.07;;
22768;SDS011;13001;51.968;5.918;2023-02-28T12:45:58;152.53;;;143.10;;
22768;SDS011;13001;51.968;5.918;2023-02-28T12:48:26;180.03;;;168.57;;
22768;SDS011;13001;51.968;5.918;2023-02-28T12:50:52;137.30;;;129.10;;
22768;SDS011;13001;51.968;5.918;2023-02-28T12:56:21;148.27;;;139.13;;
22768;SDS011;13001;51.968;5.918;2023-02-28T12:58:51;168.10;;;156.57;;
22768;SDS011;13001;51.968;5.918;2023-02-28T13:01:32;113.17;;;106.43;;
22768;SDS011;13001;51.968;5.918;2023-02-28T13:09:22;97.23;;;91.73;;
22768;SDS011;13001;51.968;5.918;2023-02-28T13:11:51;117.03;;;110.30;;
22768;SDS011;13001;51.968;5.918;2023-02-28T13:14:23;253.53;;;236.57;;
22768;SDS011;13001;51.968;5.918;2023-02-28T13:16:53;150.13;;;140.97;;
22768;SDS011;13001;51.968;5.918;2023-02-28T13:19:20;128.27;;;120.57;;
22768;SDS011;13001;51.968;5.918;2023-02-28T13:21:49;151.93;;;142.53;;
22768;SDS011;13001;51.968;5.918;2023-02-28T13:29:35;151.80;;;142.37;;
22768;SDS011;13001;51.968;5.918;2023-02-28T13:34:32;115.97;;;109.37;;
22768;SDS011;13001;51.968;5.918;2023-02-28T13:39:47;139.30;;;130.80;;
22768;SDS011;13001;51.968;5.918;2023-02-28T13:47:30;135.60;;;127.23;;
22768;SDS011;13001;51.968;5.918;2023-02-28T13:50:40;263.10;;;243.90;;
22768;SDS011;13001;51.968;5.918;2023-02-28T13:52:30;247.70;;;230.73;;
22768;SDS011;13001;51.968;5.918;2023-02-28T13:55:06;111.10;;;104.53;;
22768;SDS011;13001;51.968;5.918;2023-02-28T13:57:32;127.03;;;119.47;;
22768;SDS011;13001;51.968;5.918;2023-02-28T14:00:02;149.63;;;140.33;;
22768;SDS011;13001;51.968;5.918;2023-02-28T14:05:14;260.47;;;242.47;;
22768;SDS011;13001;51.968;5.918;2023-02-28T14:07:50;119.43;;;112.07;;
22768;SDS011;13001;51.968;5.918;2023-02-28T14:10:22;113.00;;;106.43;;
22768;SDS011;13001;51.968;5.918;2023-02-28T14:12:59;97.33;;;91.37;;
22768;SDS011;13001;51.968;5.918;2023-02-28T14:18:22;131.80;;;123.97;;
22768;SDS011;13001;51.968;5.918;2023-02-28T14:20:51;169.20;;;157.80;;
22768;SDS011;13001;51.968;5.918;2023-02-28T14:23:21;112.27;;;105.43;;
22768;SDS011;13001;51.968;5.918;2023-02-28T14:28:19;106.50;;;100.07;;
22768;SDS011;13001;51.968;5.918;2023-02-28T14:30:56;101.63;;;95.43;;
22768;SDS011;13001;51.968;5.918;2023-02-28T14:33:26;117.57;;;110.20;;
22768;SDS011;13001;51.968;5.918;2023-02-28T14:36:00;166.83;;;155.57;;
22768;SDS011;13001;51.968;5.918;2023-02-28T14:38:36;79.20;;;74.57;;
22768;SDS011;13001;51.968;5.918;2023-02-28T14:40:54;72.70;;;68.50;;
22768;SDS011;13001;51.968;5.918;2023-02-28T14:43:23;183.17;;;170.00;;
22768;SDS011;13001;51.968;5.918;2023-02-28T14:45:55;162.10;;;150.87;;
22768;SDS011;13001;51.968;5.918;2023-02-28T14:48:22;94.00;;;87.67;;
22768;SDS011;13001;51.968;5.918;2023-02-28T14:50:51;72.20;;;68.10;;
22768;SDS011;13001;51.968;5.918;2023-02-28T14:53:19;92.63;;;87.03;;
22768;SDS011;13001;51.968;5.918;2023-02-28T14:55:48;150.27;;;140.10;;
22768;SDS011;13001;51.968;5.918;2023-02-28T14:58:24;111.97;;;104.90;;
22768;SDS011;13001;51.968;5.918;2023-02-28T15:00:47;85.00;;;79.73;;
22768;SDS011;13001;51.968;5.918;2023-02-28T15:03:23;103.53;;;97.17;;
22768;SDS011;13001;51.968;5.918;2023-02-28T15:05:54;99.07;;;93.23;;
22768;SDS011;13001;51.968;5.918;2023-02-28T15:08:21;86.40;;;81.43;;
22768;SDS011;13001;51.968;5.918;2023-02-28T15:13:23;98.53;;;92.17;;
22768;SDS011;13001;51.968;5.918;2023-02-28T15:15:53;96.70;;;91.07;;
22768;SDS011;13001;51.968;5.918;2023-02-28T15:18:27;198.97;;;184.80;;
22768;SDS011;13001;51.968;5.918;2023-02-28T15:20:52;86.07;;;81.07;;
22768;SDS011;13001;51.968;5.918;2023-02-28T15:23:20;108.80;;;102.00;;
22768;SDS011;13001;51.968;5.918;2023-02-28T15:25:48;106.53;;;100.03;;
22768;SDS011;13001;51.968;5.918;2023-02-28T15:28:18;100.47;;;94.50;;
22768;SDS011;13001;51.968;5.918;2023-02-28T15:30:52;176.23;;;163.63;;
22768;SDS011;13001;51.968;5.918;2023-02-28T15:33:21;84.50;;;79.53;;
22768;SDS011;13001;51.968;5.918;2023-02-28T15:35:49;170.93;;;157.37;;
22768;SDS011;13001;51.968;5.918;2023-02-28T15:38:26;202.40;;;188.03;;
22768;SDS011;13001;51.968;5.918;2023-02-28T15:40:54;93.83;;;87.87;;
22768;SDS011;13001;51.968;5.918;2023-02-28T15:43:25;59.50;;;55.87;;
22768;SDS011;13001;51.968;5.918;2023-02-28T15:46:00;121.03;;;112.87;;
22768;SDS011;13001;51.968;5.918;2023-02-28T15:48:32;105.13;;;97.87;;
22768;SDS011;13001;51.968;5.918;2023-02-28T15:51:02;73.43;;;68.93;;
22768;SDS011;13001;51.968;5.918;2023-02-28T15:53:31;79.57;;;74.77;;
22768;SDS011;13001;51.968;5.918;2023-02-28T15:56:03;121.07;;;113.40;;
22768;SDS011;13001;51.968;5.918;2023-02-28T15:58:31;112.37;;;105.03;;
22768;SDS011;13001;51.968;5.918;2023-02-28T16:01:01;105.03;;;98.27;;
22768;SDS011;13001;51.968;5.918;2023-02-28T16:03:35;75.07;;;70.63;;
22768;SDS011;13001;51.968;5.918;2023-02-28T16:06:20;112.87;;;105.70;;
22768;SDS011;13001;51.968;5.918;2023-02-28T16:08:35;144.30;;;135.50;;
22768;SDS011;13001;51.968;5.918;2023-02-28T16:11:02;109.43;;;102.70;;
22768;SDS011;13001;51.968;5.918;2023-02-28T16:13:29;131.07;;;123.23;;
22768;SDS011;13001;51.968;5.918;2023-02-28T16:15:56;112.40;;;105.77;;
22768;SDS011;13001;51.968;5.918;2023-02-28T16:18:25;168.13;;;157.23;;
22768;SDS011;13001;51.968;5.918;2023-02-28T16:20:53;146.33;;;137.37;;
22768;SDS011;13001;51.968;5.918;2023-02-28T16:23:20;157.37;;;148.03;;
22768;SDS011;13001;51.968;5.918;2023-02-28T16:25:47;132.37;;;124.67;;
22768;SDS011;13001;51.968;5.918;2023-02-28T16:28:19;178.80;;;168.27;;
22768;SDS011;13001;51.968;5.918;2023-02-28T16:30:46;223.00;;;209.93;;
22768;SDS011;13001;51.968;5.918;2023-02-28T16:33:13;174.10;;;163.80;;
22768;SDS011;13001;51.968;5.918;2023-02-28T16:35:41;140.80;;;132.17;;
22768;SDS011;13001;51.968;5.918;2023-02-28T16:38:08;162.50;;;152.77;;
22768;SDS011;13001;51.968;5.918;2023-02-28T16:40:36;178.53;;;167.63;;
22768;SDS011;13001;51.968;5.918;2023-02-28T16:43:17;163.63;;;153.83;;
22768;SDS011;13001;51.968;5.918;2023-02-28T16:45:43;179.37;;;168.70;;
22768;SDS011;13001;51.968;5.918;2023-02-28T16:48:16;199.30;;;187.33;;
22768;SDS011;13001;51.968;5.918;2023-02-28T16:50:43;272.60;;;256.27;;
22768;SDS011;13001;51.968;5.918;2023-02-28T16:53:10;311.37;;;292.47;;
22768;SDS011;13001;51.968;5.918;2023-02-28T16:55:39;197.20;;;185.17;;
22768;SDS011;13001;51.968;5.918;2023-02-28T16:58:10;207.63;;;195.30;;
22768;SDS011;13001;51.968;5.918;2023-02-28T17:00:36;316.60;;;297.83;;
22768;SDS011;13001;51.968;5.918;2023-02-28T17:03:03;358.20;;;336.40;;
22768;SDS011;13001;51.968;5.918;2023-02-28T17:05:34;379.57;;;356.80;;
22768;SDS011;13001;51.968;5.918;2023-02-28T17:08:02;355.33;;;333.73;;
22768;SDS011;13001;51.968;5.918;2023-02-28T17:10:29;369.30;;;347.27;;
22768;SDS011;13001;51.968;5.918;2023-02-28T17:12:57;391.37;;;368.07;;
22768;SDS011;13001;51.968;5.918;2023-02-28T17:15:24;417.67;;;391.97;;
22768;SDS011;13001;51.968;5.918;2023-02-28T17:17:51;391.03;;;367.47;;
22768;SDS011;13001;51.968;5.918;2023-02-28T17:20:20;393.80;;;370.63;;
22768;SDS011;13001;51.968;5.918;2023-02-28T17:22:50;396.93;;;373.20;;
22768;SDS011;13001;51.968;5.918;2023-02-28T17:25:17;399.10;;;374.93;;
22768;SDS011;13001;51.968;5.918;2023-02-28T17:27:44;413.33;;;388.07;;
22768;SDS011;13001;51.968;5.918;2023-02-28T17:30:16;448.20;;;420.00;;
22768;SDS011;13001;51.968;5.918;2023-02-28T17:32:45;422.17;;;396.00;;